KLCH

Lake Charles Regional Airport

Lake Charles, Louisiana, USA
METAR KLCH 202353Z AUTO 21008KT 10SM CLR 32/24 A2996 RMK AO2 SLP152 T03170244 10344 20317 58001 $
Observed Flight Rules
Aug-20 @ 23:53 UTC (17 minutes ago) Visual Flight Rules
Wind Visibility Clouds
210° at 8 knots 10 miles
  • Clear skies
Temperatures Readings
Current 32°C / 90°F
Dewpoint 24°C / 75°F
Humidity 63%
Altimeter 29.96" Hg
Pressure 1015.2 hPa
Elevation 4
METAR KLCH 202353Z AUTO 21008KT 10SM CLR 32/24 A2996 RMK AO2 SLP152 T03170244 10344 20317 58001 $
Observed Flight Rules
Aug-20 @ 23:53 UTC
(17 minutes ago)
VFR
Wind Visibility
210° at 8 knots 10 miles
Clouds
  • Clear skies
Temperature Dewpoint
32°C / 90°F 24°C / 75°F
Humidity Altimeter Pressure
63% 29.96" Hg 1015.2 hPa